Time;durP1;ratioP1;P1;durP2;ratioP2;P2;SDS_P1;SDS_P2;PMS_P1;PMS_P2;Temp;Humidity;BMP_temperature;BMP_pressure;BME280_temperature;BME280_humidity;BME280_pressure;Samples;Min_cycle;Max_cycle;Signal;HPM_P1;HPM_P2
2022/02/23 00:00:19;;;;;;;4.95;1.8;;;;;;;6.51;70.82715;95649.42;;;;
2022/02/23 00:01:20;;;;;;;6.2;1.95;;;;;;;6.49;71.32227;95649.72;;;;
2022/02/23 00:02:20;;;;;;;6.2;1.95;;;;;;;6.49;71.32227;95649.72;;;;
2022/02/23 00:03:21;;;;;;;6.2;1.95;;;;;;;6.49;71.32227;95649.72;;;;
2022/02/23 00:04:21;;;;;;;6.2;1.95;;;;;;;6.49;71.32227;95649.72;;;;
2022/02/23 00:05:22;;;;;;;6.2;1.95;;;;;;;6.49;71.32227;95649.72;;;;
2022/02/23 00:06:23;;;;;;;6.2;1.95;;;;;;;6.49;71.32227;95649.72;;;;
2022/02/23 00:07:23;;;;;;;6.2;1.95;;;;;;;6.49;71.32227;95649.72;;;;
2022/02/23 00:08:24;;;;;;;6.2;1.95;;;;;;;6.49;71.32227;95649.72;;;;
2022/02/23 00:09:24;;;;;;;6.2;1.95;;;;;;;6.49;71.32227;95649.72;;;;
2022/02/23 00:10:25;;;;;;;6.2;1.95;;;;;;;6.49;71.32227;95649.72;;;;
2022/02/23 00:11:26;;;;;;;6.2;1.95;;;;;;;6.49;71.32227;95649.72;;;;
2022/02/23 00:12:26;;;;;;;5.599999;1.7;;;;;;;6.41;72.1582;95649.88;;;;
2022/02/23 00:13:27;;;;;;;5.599999;1.7;;;;;;;6.41;72.1582;95649.88;;;;
2022/02/23 00:14:28;;;;;;;5.599999;1.7;;;;;;;6.41;72.1582;95649.88;;;;
2022/02/23 00:15:28;;;;;;;5.599999;1.7;;;;;;;6.41;72.1582;95649.88;;;;
2022/02/23 00:16:29;;;;;;;5.599999;1.7;;;;;;;6.41;72.1582;95649.88;;;;
2022/02/23 00:17:29;;;;;;;5.599999;1.7;;;;;;;6.41;72.1582;95649.88;;;;
2022/02/23 00:18:30;;;;;;;5.599999;1.7;;;;;;;6.41;72.1582;95649.88;;;;
2022/02/23 00:19:30;;;;;;;5.599999;1.7;;;;;;;6.41;72.1582;95649.88;;;;
2022/02/23 00:20:31;;;;;;;5.599999;1.7;;;;;;;6.41;72.1582;95649.88;;;;
2022/02/23 00:21:32;;;;;;;5.599999;1.7;;;;;;;6.41;72.1582;95649.88;;;;
2022/02/23 00:22:34;;;;;;;3.6;1.6;;;;;;;6.32;72.71484;95651.92;;;;
2022/02/23 00:23:34;;;;;;;3.6;1.6;;;;;;;6.32;72.71484;95651.92;;;;
2022/02/23 00:24:35;;;;;;;3.6;1.6;;;;;;;6.32;72.71484;95651.92;;;;
2022/02/23 00:25:35;;;;;;;3.6;1.6;;;;;;;6.32;72.71484;95651.92;;;;
2022/02/23 00:26:36;;;;;;;3.6;1.6;;;;;;;6.32;72.71484;95651.92;;;;
2022/02/23 00:27:36;;;;;;;3.6;1.6;;;;;;;6.32;72.71484;95651.92;;;;
2022/02/23 00:28:37;;;;;;;3.6;1.6;;;;;;;6.32;72.71484;95651.92;;;;
2022/02/23 00:29:38;;;;;;;3.6;1.6;;;;;;;6.32;72.71484;95651.92;;;;
2022/02/23 00:30:38;;;;;;;3.6;1.6;;;;;;;6.32;72.71484;95651.92;;;;
2022/02/23 00:31:39;;;;;;;3.6;1.6;;;;;;;6.32;72.71484;95651.92;;;;
2022/02/23 00:32:39;;;;;;;3.6;1.6;;;;;;;6.32;72.71484;95651.92;;;;
2022/02/23 00:33:40;;;;;;;3.6;1.6;;;;;;;6.32;72.71484;95651.92;;;;
2022/02/23 00:34:41;;;;;;;3.6;1.6;;;;;;;6.32;72.71484;95651.92;;;;
2022/02/23 00:35:41;;;;;;;3.6;1.6;;;;;;;6.32;72.71484;95651.92;;;;
2022/02/23 00:36:42;;;;;;;3.6;1.6;;;;;;;6.32;72.71484;95651.92;;;;
2022/02/23 00:37:42;;;;;;;3.6;1.6;;;;;;;6.32;72.71484;95651.92;;;;
2022/02/23 00:38:43;;;;;;;3.6;1.6;;;;;;;6.32;72.71484;95651.92;;;;
2022/02/23 00:39:43;;;;;;;3.6;1.6;;;;;;;6.32;72.71484;95651.92;;;;
2022/02/23 00:40:44;;;;;;;3.6;1.6;;;;;;;6.32;72.71484;95651.92;;;;
2022/02/23 00:41:44;;;;;;;3.6;1.6;;;;;;;6.32;72.71484;95651.92;;;;
2022/02/23 00:42:45;;;;;;;3.6;1.6;;;;;;;6.32;72.71484;95651.92;;;;
2022/02/23 00:43:45;;;;;;;4.1;1.7;;;;;;;6.08;74.09473;95655.11;;;;
2022/02/23 00:44:46;;;;;;;4.1;1.7;;;;;;;6.08;74.09473;95655.11;;;;
2022/02/23 00:45:46;;;;;;;4.1;1.7;;;;;;;6.08;74.09473;95655.11;;;;
2022/02/23 00:46:47;;;;;;;4.1;1.7;;;;;;;6.08;74.09473;95655.11;;;;
2022/02/23 00:47:48;;;;;;;4.1;1.7;;;;;;;6.08;74.09473;95655.11;;;;
2022/02/23 00:48:48;;;;;;;4.1;1.7;;;;;;;6.08;74.09473;95655.11;;;;
2022/02/23 00:49:49;;;;;;;4.1;1.7;;;;;;;6.08;74.09473;95655.11;;;;
2022/02/23 00:50:49;;;;;;;4.1;1.7;;;;;;;6.08;74.09473;95655.11;;;;
2022/02/23 00:51:50;;;;;;;4.1;1.7;;;;;;;6.08;74.09473;95655.11;;;;
2022/02/23 00:52:51;;;;;;;4.1;1.7;;;;;;;6.08;74.09473;95655.11;;;;
2022/02/23 00:53:52;;;;;;;4.1;1.7;;;;;;;6.08;74.09473;95655.11;;;;
2022/02/23 00:54:52;;;;;;;2.65;1.7;;;;;;;6.03;74.72266;95647.27;;;;
2022/02/23 00:55:53;;;;;;;2.65;1.7;;;;;;;6.03;74.72266;95647.27;;;;
2022/02/23 00:56:53;;;;;;;2.65;1.7;;;;;;;6.03;74.72266;95647.27;;;;
2022/02/23 00:57:54;;;;;;;2.65;1.7;;;;;;;6.03;74.72266;95647.27;;;;
2022/02/23 00:58:54;;;;;;;2.65;1.7;;;;;;;6.03;74.72266;95647.27;;;;
2022/02/23 00:59:55;;;;;;;2.65;1.7;;;;;;;6.03;74.72266;95647.27;;;;
2022/02/23 01:00:56;;;;;;;2.65;1.7;;;;;;;6.03;74.72266;95647.27;;;;
2022/02/23 01:01:56;;;;;;;2.65;1.7;;;;;;;6.03;74.72266;95647.27;;;;
2022/02/23 01:02:57;;;;;;;2.65;1.7;;;;;;;6.03;74.72266;95647.27;;;;
2022/02/23 01:03:57;;;;;;;2.65;1.7;;;;;;;6.03;74.72266;95647.27;;;;
2022/02/23 01:04:58;;;;;;;4.25;1.55;;;;;;;6.06;75.03418;95649.53;;;;
2022/02/23 01:05:58;;;;;;;4.25;1.55;;;;;;;6.06;75.03418;95649.53;;;;
2022/02/23 01:06:59;;;;;;;4.25;1.55;;;;;;;6.06;75.03418;95649.53;;;;
2022/02/23 01:07:59;;;;;;;4.25;1.55;;;;;;;6.06;75.03418;95649.53;;;;
2022/02/23 01:09:00;;;;;;;4.25;1.55;;;;;;;6.06;75.03418;95649.53;;;;
2022/02/23 01:10:01;;;;;;;4.25;1.55;;;;;;;6.06;75.03418;95649.53;;;;
2022/02/23 01:11:02;;;;;;;4.25;1.55;;;;;;;6.06;75.03418;95649.53;;;;
2022/02/23 01:12:03;;;;;;;4.25;1.55;;;;;;;6.06;75.03418;95649.53;;;;
2022/02/23 01:13:04;;;;;;;4.25;1.55;;;;;;;6.06;75.03418;95649.53;;;;
2022/02/23 01:14:05;;;;;;;4.25;1.55;;;;;;;6.06;75.03418;95649.53;;;;
2022/02/23 01:15:07;;;;;;;4.25;1.55;;;;;;;6.06;75.03418;95649.53;;;;
2022/02/23 01:16:08;;;;;;;3.95;1.6;;;;;;;6.11;75.25586;95651.12;;;;
2022/02/23 01:17:09;;;;;;;3.95;1.6;;;;;;;6.11;75.25586;95651.12;;;;
2022/02/23 01:18:09;;;;;;;3.95;1.6;;;;;;;6.11;75.25586;95651.12;;;;
2022/02/23 01:19:10;;;;;;;3.95;1.6;;;;;;;6.11;75.25586;95651.12;;;;
2022/02/23 01:20:11;;;;;;;3.95;1.6;;;;;;;6.11;75.25586;95651.12;;;;
2022/02/23 01:21:11;;;;;;;3.95;1.6;;;;;;;6.11;75.25586;95651.12;;;;
2022/02/23 01:22:12;;;;;;;3.95;1.6;;;;;;;6.11;75.25586;95651.12;;;;
2022/02/23 01:23:12;;;;;;;3.95;1.6;;;;;;;6.11;75.25586;95651.12;;;;
2022/02/23 01:24:13;;;;;;;3.95;1.6;;;;;;;6.11;75.25586;95651.12;;;;
2022/02/23 01:25:14;;;;;;;3.95;1.6;;;;;;;6.11;75.25586;95651.12;;;;
2022/02/23 01:26:15;;;;;;;2.45;1.45;;;;;;;6.2;75.63086;95640.12;;;;
2022/02/23 01:27:16;;;;;;;2.45;1.45;;;;;;;6.2;75.63086;95640.12;;;;
2022/02/23 01:28:16;;;;;;;2.45;1.45;;;;;;;6.2;75.63086;95640.12;;;;
2022/02/23 01:29:17;;;;;;;2.45;1.45;;;;;;;6.2;75.63086;95640.12;;;;
2022/02/23 01:30:17;;;;;;;2.45;1.45;;;;;;;6.2;75.63086;95640.12;;;;
2022/02/23 01:31:18;;;;;;;2.45;1.45;;;;;;;6.2;75.63086;95640.12;;;;
2022/02/23 01:32:19;;;;;;;2.45;1.45;;;;;;;6.2;75.63086;95640.12;;;;
2022/02/23 01:33:20;;;;;;;2.45;1.45;;;;;;;6.2;75.63086;95640.12;;;;
2022/02/23 01:34:20;;;;;;;2.45;1.45;;;;;;;6.2;75.63086;95640.12;;;;
2022/02/23 01:35:21;;;;;;;2.45;1.45;;;;;;;6.2;75.63086;95640.12;;;;
2022/02/23 01:36:22;;;;;;;2.45;1.45;;;;;;;6.2;75.63086;95640.12;;;;
2022/02/23 01:37:22;;;;;;;2.7;1.3;;;;;;;6.3;75.79492;95646.44;;;;
2022/02/23 01:38:23;;;;;;;2.7;1.3;;;;;;;6.3;75.79492;95646.44;;;;
2022/02/23 01:39:24;;;;;;;2.7;1.3;;;;;;;6.3;75.79492;95646.44;;;;
2022/02/23 01:40:24;;;;;;;2.7;1.3;;;;;;;6.3;75.79492;95646.44;;;;
2022/02/23 01:41:27;;;;;;;2.7;1.3;;;;;;;6.3;75.79492;95646.44;;;;
2022/02/23 01:42:28;;;;;;;2.7;1.3;;;;;;;6.3;75.79492;95646.44;;;;
2022/02/23 01:43:28;;;;;;;2.7;1.3;;;;;;;6.3;75.79492;95646.44;;;;
2022/02/23 01:44:30;;;;;;;2.7;1.3;;;;;;;6.3;75.79492;95646.44;;;;
2022/02/23 01:45:30;;;;;;;2.7;1.3;;;;;;;6.3;75.79492;95646.44;;;;
2022/02/23 01:46:31;;;;;;;2.7;1.3;;;;;;;6.3;75.79492;95646.44;;;;
2022/02/23 01:47:31;;;;;;;2.7;1.3;;;;;;;6.3;75.79492;95646.44;;;;
2022/02/23 01:48:32;;;;;;;3.45;1.65;;;;;;;6.41;75.97363;95646.28;;;;
2022/02/23 01:49:32;;;;;;;3.45;1.65;;;;;;;6.41;75.97363;95646.28;;;;
2022/02/23 01:50:33;;;;;;;3.45;1.65;;;;;;;6.41;75.97363;95646.28;;;;
2022/02/23 01:51:34;;;;;;;3.45;1.65;;;;;;;6.41;75.97363;95646.28;;;;
2022/02/23 01:52:34;;;;;;;3.45;1.65;;;;;;;6.41;75.97363;95646.28;;;;
2022/02/23 01:53:35;;;;;;;3.45;1.65;;;;;;;6.41;75.97363;95646.28;;;;
2022/02/23 01:54:36;;;;;;;3.45;1.65;;;;;;;6.41;75.97363;95646.28;;;;
2022/02/23 01:55:37;;;;;;;3.45;1.65;;;;;;;6.41;75.97363;95646.28;;;;
2022/02/23 01:56:38;;;;;;;3.45;1.65;;;;;;;6.41;75.97363;95646.28;;;;
2022/02/23 01:57:38;;;;;;;3.45;1.65;;;;;;;6.41;75.97363;95646.28;;;;
2022/02/23 01:58:39;;;;;;;2.8;1.3;;;;;;;6.53;75.70801;95643.31;;;;
2022/02/23 01:59:40;;;;;;;2.8;1.3;;;;;;;6.53;75.70801;95643.31;;;;
2022/02/23 02:00:40;;;;;;;2.8;1.3;;;;;;;6.53;75.70801;95643.31;;;;
2022/02/23 02:01:41;;;;;;;2.8;1.3;;;;;;;6.53;75.70801;95643.31;;;;
2022/02/23 02:02:41;;;;;;;2.8;1.3;;;;;;;6.53;75.70801;95643.31;;;;
2022/02/23 02:03:42;;;;;;;2.8;1.3;;;;;;;6.53;75.70801;95643.31;;;;
2022/02/23 02:04:42;;;;;;;2.8;1.3;;;;;;;6.53;75.70801;95643.31;;;;
2022/02/23 02:05:43;;;;;;;2.8;1.3;;;;;;;6.53;75.70801;95643.31;;;;
2022/02/23 02:06:44;;;;;;;2.8;1.3;;;;;;;6.53;75.70801;95643.31;;;;
2022/02/23 02:07:44;;;;;;;2.8;1.3;;;;;;;6.53;75.70801;95643.31;;;;
2022/02/23 02:08:45;;;;;;;2.8;1.3;;;;;;;6.53;75.70801;95643.31;;;;
2022/02/23 02:09:45;;;;;;;2.949999;1.55;;;;;;;6.51;75.64063;95651.15;;;;
2022/02/23 02:10:45;;;;;;;2.949999;1.55;;;;;;;6.51;75.64063;95651.15;;;;
2022/02/23 02:11:46;;;;;;;2.949999;1.55;;;;;;;6.51;75.64063;95651.15;;;;
2022/02/23 02:12:46;;;;;;;2.949999;1.55;;;;;;;6.51;75.64063;95651.15;;;;
2022/02/23 02:13:47;;;;;;;2.949999;1.55;;;;;;;6.51;75.64063;95651.15;;;;
2022/02/23 02:14:47;;;;;;;2.949999;1.55;;;;;;;6.51;75.64063;95651.15;;;;
2022/02/23 02:15:48;;;;;;;2.949999;1.55;;;;;;;6.51;75.64063;95651.15;;;;
2022/02/23 02:16:49;;;;;;;2.949999;1.55;;;;;;;6.51;75.64063;95651.15;;;;
2022/02/23 02:17:50;;;;;;;2.949999;1.55;;;;;;;6.51;75.64063;95651.15;;;;
2022/02/23 02:18:50;;;;;;;2.949999;1.55;;;;;;;6.51;75.64063;95651.15;;;;
2022/02/23 02:19:51;;;;;;;2.4;1.25;;;;;;;6.51;75.91602;95672.22;;;;
2022/02/23 02:20:51;;;;;;;2.4;1.25;;;;;;;6.51;75.91602;95672.22;;;;
2022/02/23 02:21:52;;;;;;;2.4;1.25;;;;;;;6.51;75.91602;95672.22;;;;
2022/02/23 02:22:54;;;;;;;2.4;1.25;;;;;;;6.51;75.91602;95672.22;;;;
2022/02/23 02:23:55;;;;;;;2.4;1.25;;;;;;;6.51;75.91602;95672.22;;;;
2022/02/23 02:24:56;;;;;;;2.4;1.25;;;;;;;6.51;75.91602;95672.22;;;;
2022/02/23 02:25:57;;;;;;;2.4;1.25;;;;;;;6.51;75.91602;95672.22;;;;
2022/02/23 02:26:58;;;;;;;2.4;1.25;;;;;;;6.51;75.91602;95672.22;;;;
2022/02/23 02:28:02;;;;;;;2.4;1.25;;;;;;;6.51;75.91602;95672.22;;;;
2022/02/23 02:29:03;;;;;;;2.4;1.25;;;;;;;6.51;75.91602;95672.22;;;;
2022/02/23 02:30:04;;;;;;;2.4;1.25;;;;;;;6.51;75.91602;95672.22;;;;
2022/02/23 02:31:06;;;;;;;3.75;1.35;;;;;;;6.61;76.10547;95673.08;;;;
2022/02/23 02:32:06;;;;;;;3.75;1.35;;;;;;;6.61;76.10547;95673.08;;;;
2022/02/23 02:33:08;;;;;;;3.75;1.35;;;;;;;6.61;76.10547;95673.08;;;;
2022/02/23 02:34:09;;;;;;;3.75;1.35;;;;;;;6.61;76.10547;95673.08;;;;
2022/02/23 02:35:12;;;;;;;3.75;1.35;;;;;;;6.61;76.10547;95673.08;;;;
2022/02/23 02:36:12;;;;;;;3.75;1.35;;;;;;;6.61;76.10547;95673.08;;;;
2022/02/23 02:37:13;;;;;;;3.75;1.35;;;;;;;6.61;76.10547;95673.08;;;;
2022/02/23 02:38:15;;;;;;;3.75;1.35;;;;;;;6.61;76.10547;95673.08;;;;
2022/02/23 02:39:15;;;;;;;3.75;1.35;;;;;;;6.61;76.10547;95673.08;;;;
2022/02/23 02:40:17;;;;;;;3.75;1.35;;;;;;;6.61;76.10547;95673.08;;;;
2022/02/23 02:41:17;;;;;;;2.6;1.3;;;;;;;6.62;76.5293;95669.47;;;;
2022/02/23 02:42:18;;;;;;;2.6;1.3;;;;;;;6.62;76.5293;95669.47;;;;
2022/02/23 02:43:19;;;;;;;2.6;1.3;;;;;;;6.62;76.5293;95669.47;;;;
2022/02/23 02:44:19;;;;;;;2.6;1.3;;;;;;;6.62;76.5293;95669.47;;;;
2022/02/23 02:45:21;;;;;;;2.6;1.3;;;;;;;6.62;76.5293;95669.47;;;;
2022/02/23 02:46:22;;;;;;;2.6;1.3;;;;;;;6.62;76.5293;95669.47;;;;
2022/02/23 02:47:23;;;;;;;2.6;1.3;;;;;;;6.62;76.5293;95669.47;;;;
2022/02/23 02:48:23;;;;;;;2.6;1.3;;;;;;;6.62;76.5293;95669.47;;;;
2022/02/23 02:49:24;;;;;;;2.6;1.3;;;;;;;6.62;76.5293;95669.47;;;;
2022/02/23 02:50:24;;;;;;;2.6;1.3;;;;;;;6.62;76.5293;95669.47;;;;
2022/02/23 02:51:25;;;;;;;2.6;1.3;;;;;;;6.62;76.5293;95669.47;;;;
2022/02/23 02:52:25;;;;;;;3.8;1.4;;;;;;;6.63;76.88086;95682.67;;;;
2022/02/23 02:53:27;;;;;;;3.8;1.4;;;;;;;6.63;76.88086;95682.67;;;;
2022/02/23 02:54:27;;;;;;;3.8;1.4;;;;;;;6.63;76.88086;95682.67;;;;
2022/02/23 02:55:27;;;;;;;3.8;1.4;;;;;;;6.63;76.88086;95682.67;;;;
2022/02/23 02:56:28;;;;;;;3.8;1.4;;;;;;;6.63;76.88086;95682.67;;;;
2022/02/23 02:57:29;;;;;;;3.8;1.4;;;;;;;6.63;76.88086;95682.67;;;;
2022/02/23 02:58:29;;;;;;;3.8;1.4;;;;;;;6.63;76.88086;95682.67;;;;
2022/02/23 02:59:30;;;;;;;3.8;1.4;;;;;;;6.63;76.88086;95682.67;;;;
2022/02/23 03:00:30;;;;;;;3.8;1.4;;;;;;;6.63;76.88086;95682.67;;;;
2022/02/23 03:01:32;;;;;;;3.8;1.4;;;;;;;6.63;76.88086;95682.67;;;;
2022/02/23 03:02:33;;;;;;;2.699999;1.4;;;;;;;6.68;76.91211;95696.72;;;;
2022/02/23 03:03:34;;;;;;;2.699999;1.4;;;;;;;6.68;76.91211;95696.72;;;;
2022/02/23 03:04:35;;;;;;;2.699999;1.4;;;;;;;6.68;76.91211;95696.72;;;;
2022/02/23 03:05:35;;;;;;;2.699999;1.4;;;;;;;6.68;76.91211;95696.72;;;;
2022/02/23 03:06:36;;;;;;;2.699999;1.4;;;;;;;6.68;76.91211;95696.72;;;;
2022/02/23 03:07:37;;;;;;;2.699999;1.4;;;;;;;6.68;76.91211;95696.72;;;;
2022/02/23 03:08:37;;;;;;;2.699999;1.4;;;;;;;6.68;76.91211;95696.72;;;;
2022/02/23 03:09:38;;;;;;;2.699999;1.4;;;;;;;6.68;76.91211;95696.72;;;;
2022/02/23 03:10:38;;;;;;;2.699999;1.4;;;;;;;6.68;76.91211;95696.72;;;;
2022/02/23 03:11:39;;;;;;;2.699999;1.4;;;;;;;6.68;76.91211;95696.72;;;;
2022/02/23 03:12:39;;;;;;;2.699999;1.4;;;;;;;6.68;76.91211;95696.72;;;;
2022/02/23 03:13:40;;;;;;;3.2;1.25;;;;;;;6.65;76.86133;95698.56;;;;
2022/02/23 03:14:41;;;;;;;3.2;1.25;;;;;;;6.65;76.86133;95698.56;;;;
2022/02/23 03:15:41;;;;;;;3.2;1.25;;;;;;;6.65;76.86133;95698.56;;;;
2022/02/23 03:16:42;;;;;;;3.2;1.25;;;;;;;6.65;76.86133;95698.56;;;;
2022/02/23 03:17:42;;;;;;;3.2;1.25;;;;;;;6.65;76.86133;95698.56;;;;
2022/02/23 03:18:43;;;;;;;3.2;1.25;;;;;;;6.65;76.86133;95698.56;;;;
2022/02/23 03:19:43;;;;;;;3.2;1.25;;;;;;;6.65;76.86133;95698.56;;;;
2022/02/23 03:20:44;;;;;;;3.2;1.25;;;;;;;6.65;76.86133;95698.56;;;;
2022/02/23 03:21:44;;;;;;;3.2;1.25;;;;;;;6.65;76.86133;95698.56;;;;
2022/02/23 03:22:46;;;;;;;3.2;1.25;;;;;;;6.65;76.86133;95698.56;;;;
2022/02/23 03:23:46;;;;;;;1.95;1.1;;;;;;;6.53;77.29688;95717.61;;;;
2022/02/23 03:24:47;;;;;;;1.95;1.1;;;;;;;6.53;77.29688;95717.61;;;;
2022/02/23 03:25:48;;;;;;;1.95;1.1;;;;;;;6.53;77.29688;95717.61;;;;
2022/02/23 03:26:48;;;;;;;1.95;1.1;;;;;;;6.53;77.29688;95717.61;;;;
2022/02/23 03:27:49;;;;;;;1.95;1.1;;;;;;;6.53;77.29688;95717.61;;;;
2022/02/23 03:28:49;;;;;;;1.95;1.1;;;;;;;6.53;77.29688;95717.61;;;;
2022/02/23 03:29:50;;;;;;;1.95;1.1;;;;;;;6.53;77.29688;95717.61;;;;
2022/02/23 03:30:51;;;;;;;1.95;1.1;;;;;;;6.53;77.29688;95717.61;;;;
2022/02/23 03:31:51;;;;;;;1.95;1.1;;;;;;;6.53;77.29688;95717.61;;;;
2022/02/23 03:32:52;;;;;;;1.95;1.1;;;;;;;6.53;77.29688;95717.61;;;;
2022/02/23 03:33:52;;;;;;;1.95;1.1;;;;;;;6.53;77.29688;95717.61;;;;
2022/02/23 03:34:53;;;;;;;2.85;1.5;;;;;;;6.41;77.60449;95720.95;;;;
2022/02/23 03:35:53;;;;;;;2.85;1.5;;;;;;;6.41;77.60449;95720.95;;;;
2022/02/23 03:36:54;;;;;;;2.85;1.5;;;;;;;6.41;77.60449;95720.95;;;;
2022/02/23 03:37:54;;;;;;;2.85;1.5;;;;;;;6.41;77.60449;95720.95;;;;
2022/02/23 03:38:55;;;;;;;2.85;1.5;;;;;;;6.41;77.60449;95720.95;;;;
2022/02/23 03:39:56;;;;;;;2.85;1.5;;;;;;;6.41;77.60449;95720.95;;;;
2022/02/23 03:40:57;;;;;;;2.85;1.5;;;;;;;6.41;77.60449;95720.95;;;;
2022/02/23 03:41:57;;;;;;;2.85;1.5;;;;;;;6.41;77.60449;95720.95;;;;
2022/02/23 03:42:58;;;;;;;2.85;1.5;;;;;;;6.41;77.60449;95720.95;;;;
2022/02/23 03:43:59;;;;;;;2.85;1.5;;;;;;;6.41;77.60449;95720.95;;;;
2022/02/23 03:44:59;;;;;;;2.85;1.5;;;;;;;6.41;77.60449;95720.95;;;;
2022/02/23 03:46:00;;;;;;;2.6;1.3;;;;;;;6.32;78.02148;95738.65;;;;
2022/02/23 03:47:01;;;;;;;2.6;1.3;;;;;;;6.32;78.02148;95738.65;;;;
2022/02/23 03:48:01;;;;;;;2.6;1.3;;;;;;;6.32;78.02148;95738.65;;;;
2022/02/23 03:49:02;;;;;;;2.6;1.3;;;;;;;6.32;78.02148;95738.65;;;;
2022/02/23 03:50:03;;;;;;;2.6;1.3;;;;;;;6.32;78.02148;95738.65;;;;
2022/02/23 03:51:04;;;;;;;2.6;1.3;;;;;;;6.32;78.02148;95738.65;;;;
2022/02/23 03:52:05;;;;;;;2.6;1.3;;;;;;;6.32;78.02148;95738.65;;;;
2022/02/23 03:53:06;;;;;;;2.6;1.3;;;;;;;6.32;78.02148;95738.65;;;;
2022/02/23 03:54:07;;;;;;;2.6;1.3;;;;;;;6.32;78.02148;95738.65;;;;
2022/02/23 03:55:08;;;;;;;2.6;1.3;;;;;;;6.32;78.02148;95738.65;;;;
2022/02/23 03:56:38;;;;;;;2.6;1.3;;;;;;;6.32;78.02148;95738.65;;;;
2022/02/23 03:57:38;;;;;;;2.6;1.3;;;;;;;6.32;78.02148;95738.65;;;;
2022/02/23 03:58:39;;;;;;;2.6;1.3;;;;;;;6.32;78.02148;95738.65;;;;
2022/02/23 03:59:39;;;;;;;2.6;1.3;;;;;;;6.32;78.02148;95738.65;;;;
2022/02/23 04:00:40;;;;;;;2.6;1.3;;;;;;;6.32;78.02148;95738.65;;;;
2022/02/23 04:01:41;;;;;;;2.6;1.3;;;;;;;6.32;78.02148;95738.65;;;;
2022/02/23 04:02:44;;;;;;;2.6;1.3;;;;;;;6.32;78.02148;95738.65;;;;
2022/02/23 04:03:45;;;;;;;2.6;1.3;;;;;;;6.32;78.02148;95738.65;;;;
2022/02/23 04:04:45;;;;;;;2.6;1.3;;;;;;;6.32;78.02148;95738.65;;;;
2022/02/23 04:05:45;;;;;;;2.6;1.3;;;;;;;6.32;78.02148;95738.65;;;;
2022/02/23 04:06:46;;;;;;;3.8;1.4;;;;;;;6.19;79.5;95892.74;;;;
2022/02/23 04:07:48;;;;;;;3.8;1.4;;;;;;;6.19;79.5;95892.74;;;;
2022/02/23 04:08:48;;;;;;;3.8;1.4;;;;;;;6.19;79.5;95892.74;;;;
2022/02/23 04:09:49;;;;;;;3.8;1.4;;;;;;;6.19;79.5;95892.74;;;;
2022/02/23 04:10:49;;;;;;;3.8;1.4;;;;;;;6.19;79.5;95892.74;;;;
2022/02/23 04:11:50;;;;;;;3.8;1.4;;;;;;;6.19;79.5;95892.74;;;;
2022/02/23 04:12:50;;;;;;;3.8;1.4;;;;;;;6.19;79.5;95892.74;;;;
2022/02/23 04:13:51;;;;;;;3.8;1.4;;;;;;;6.19;79.5;95892.74;;;;
2022/02/23 04:14:52;;;;;;;3.8;1.4;;;;;;;6.19;79.5;95892.74;;;;
2022/02/23 04:15:52;;;;;;;3.8;1.4;;;;;;;6.19;79.5;95892.74;;;;
2022/02/23 04:16:53;;;;;;;3.8;1.4;;;;;;;6.19;79.5;95892.74;;;;
2022/02/23 04:17:53;;;;;;;4.3;1.4;;;;;;;5.37;79.25391;95933.42;;;;
2022/02/23 04:18:54;;;;;;;4.3;1.4;;;;;;;5.37;79.25391;95933.42;;;;
2022/02/23 04:19:54;;;;;;;4.3;1.4;;;;;;;5.37;79.25391;95933.42;;;;
2022/02/23 04:20:55;;;;;;;4.3;1.4;;;;;;;5.37;79.25391;95933.42;;;;
2022/02/23 04:21:55;;;;;;;4.3;1.4;;;;;;;5.37;79.25391;95933.42;;;;
2022/02/23 04:22:56;;;;;;;4.3;1.4;;;;;;;5.37;79.25391;95933.42;;;;
2022/02/23 04:23:56;;;;;;;4.3;1.4;;;;;;;5.37;79.25391;95933.42;;;;
2022/02/23 04:24:57;;;;;;;4.3;1.4;;;;;;;5.37;79.25391;95933.42;;;;
2022/02/23 04:25:57;;;;;;;4.3;1.4;;;;;;;5.37;79.25391;95933.42;;;;
2022/02/23 04:26:59;;;;;;;4.3;1.4;;;;;;;5.37;79.25391;95933.42;;;;
2022/02/23 04:28:00;;;;;;;4.149999;1.35;;;;;;;4.68;80.54199;95957.09;;;;
2022/02/23 04:29:00;;;;;;;4.149999;1.35;;;;;;;4.68;80.54199;95957.09;;;;
2022/02/23 04:30:01;;;;;;;4.149999;1.35;;;;;;;4.68;80.54199;95957.09;;;;
2022/02/23 04:31:03;;;;;;;4.149999;1.35;;;;;;;4.68;80.54199;95957.09;;;;
2022/02/23 04:32:03;;;;;;;4.149999;1.35;;;;;;;4.68;80.54199;95957.09;;;;
2022/02/23 04:33:05;;;;;;;4.149999;1.35;;;;;;;4.68;80.54199;95957.09;;;;
2022/02/23 04:34:06;;;;;;;4.149999;1.35;;;;;;;4.68;80.54199;95957.09;;;;
2022/02/23 04:35:06;;;;;;;4.149999;1.35;;;;;;;4.68;80.54199;95957.09;;;;
2022/02/23 04:36:08;;;;;;;4.149999;1.35;;;;;;;4.68;80.54199;95957.09;;;;
2022/02/23 04:37:10;;;;;;;4.149999;1.35;;;;;;;4.68;80.54199;95957.09;;;;
2022/02/23 04:38:10;;;;;;;4.149999;1.35;;;;;;;4.68;80.54199;95957.09;;;;
2022/02/23 04:39:11;;;;;;;4;1.4;;;;;;;4.3;82.00586;95987.95;;;;
2022/02/23 04:40:11;;;;;;;4;1.4;;;;;;;4.3;82.00586;95987.95;;;;
2022/02/23 04:41:12;;;;;;;4;1.4;;;;;;;4.3;82.00586;95987.95;;;;
2022/02/23 04:42:13;;;;;;;4;1.4;;;;;;;4.3;82.00586;95987.95;;;;
2022/02/23 04:43:14;;;;;;;4;1.4;;;;;;;4.3;82.00586;95987.95;;;;
2022/02/23 04:44:16;;;;;;;4;1.4;;;;;;;4.3;82.00586;95987.95;;;;
2022/02/23 04:45:16;;;;;;;4;1.4;;;;;;;4.3;82.00586;95987.95;;;;
2022/02/23 04:46:17;;;;;;;4;1.4;;;;;;;4.3;82.00586;95987.95;;;;
2022/02/23 04:47:17;;;;;;;4;1.4;;;;;;;4.3;82.00586;95987.95;;;;
2022/02/23 04:48:18;;;;;;;4;1.4;;;;;;;4.3;82.00586;95987.95;;;;
2022/02/23 04:49:18;;;;;;;3.6;1.25;;;;;;;4.03;83.18555;95994.26;;;;
2022/02/23 04:50:19;;;;;;;3.6;1.25;;;;;;;4.03;83.18555;95994.26;;;;
2022/02/23 04:51:19;;;;;;;3.6;1.25;;;;;;;4.03;83.18555;95994.26;;;;
2022/02/23 04:52:20;;;;;;;3.6;1.25;;;;;;;4.03;83.18555;95994.26;;;;
2022/02/23 04:53:20;;;;;;;3.6;1.25;;;;;;;4.03;83.18555;95994.26;;;;
2022/02/23 04:54:21;;;;;;;3.6;1.25;;;;;;;4.03;83.18555;95994.26;;;;
2022/02/23 04:55:21;;;;;;;3.6;1.25;;;;;;;4.03;83.18555;95994.26;;;;
2022/02/23 04:56:22;;;;;;;3.6;1.25;;;;;;;4.03;83.18555;95994.26;;;;
2022/02/23 04:57:23;;;;;;;3.6;1.25;;;;;;;4.03;83.18555;95994.26;;;;
2022/02/23 04:58:23;;;;;;;3.6;1.25;;;;;;;4.03;83.18555;95994.26;;;;
2022/02/23 04:59:24;;;;;;;3.6;1.25;;;;;;;4.03;83.18555;95994.26;;;;
2022/02/23 05:00:24;;;;;;;6.2;1.45;;;;;;;3.86;84.16992;96002.58;;;;
2022/02/23 05:01:25;;;;;;;6.2;1.45;;;;;;;3.86;84.16992;96002.58;;;;
2022/02/23 05:02:25;;;;;;;6.2;1.45;;;;;;;3.86;84.16992;96002.58;;;;
2022/02/23 05:03:26;;;;;;;6.2;1.45;;;;;;;3.86;84.16992;96002.58;;;;
2022/02/23 05:04:27;;;;;;;6.2;1.45;;;;;;;3.86;84.16992;96002.58;;;;
2022/02/23 05:05:27;;;;;;;6.2;1.45;;;;;;;3.86;84.16992;96002.58;;;;
2022/02/23 05:06:28;;;;;;;6.2;1.45;;;;;;;3.86;84.16992;96002.58;;;;
2022/02/23 05:07:28;;;;;;;6.2;1.45;;;;;;;3.86;84.16992;96002.58;;;;
2022/02/23 05:08:29;;;;;;;6.2;1.45;;;;;;;3.86;84.16992;96002.58;;;;
2022/02/23 05:09:29;;;;;;;6.2;1.45;;;;;;;3.86;84.16992;96002.58;;;;
2022/02/23 05:10:30;;;;;;;5.5;1.35;;;;;;;3.75;84.88477;95996.72;;;;
2022/02/23 05:11:30;;;;;;;5.5;1.35;;;;;;;3.75;84.88477;95996.72;;;;
2022/02/23 05:12:31;;;;;;;5.5;1.35;;;;;;;3.75;84.88477;95996.72;;;;
2022/02/23 05:13:32;;;;;;;5.5;1.35;;;;;;;3.75;84.88477;95996.72;;;;
2022/02/23 05:14:33;;;;;;;5.5;1.35;;;;;;;3.75;84.88477;95996.72;;;;
2022/02/23 05:15:34;;;;;;;5.5;1.35;;;;;;;3.75;84.88477;95996.72;;;;
2022/02/23 05:16:35;;;;;;;5.5;1.35;;;;;;;3.75;84.88477;95996.72;;;;
2022/02/23 05:17:36;;;;;;;5.5;1.35;;;;;;;3.75;84.88477;95996.72;;;;
2022/02/23 05:18:39;;;;;;;5.5;1.35;;;;;;;3.75;84.88477;95996.72;;;;
2022/02/23 05:19:39;;;;;;;5.5;1.35;;;;;;;3.75;84.88477;95996.72;;;;
2022/02/23 05:20:40;;;;;;;5.5;1.35;;;;;;;3.75;84.88477;95996.72;;;;
2022/02/23 05:21:40;;;;;;;3.55;1.3;;;;;;;3.66;85.59082;96014.71;;;;
2022/02/23 05:22:45;;;;;;;3.55;1.3;;;;;;;3.66;85.59082;96014.71;;;;
2022/02/23 05:23:45;;;;;;;3.55;1.3;;;;;;;3.66;85.59082;96014.71;;;;
2022/02/23 05:24:46;;;;;;;3.55;1.3;;;;;;;3.66;85.59082;96014.71;;;;
2022/02/23 05:25:46;;;;;;;3.55;1.3;;;;;;;3.66;85.59082;96014.71;;;;
2022/02/23 05:26:47;;;;;;;3.55;1.3;;;;;;;3.66;85.59082;96014.71;;;;
2022/02/23 05:27:47;;;;;;;3.55;1.3;;;;;;;3.66;85.59082;96014.71;;;;
2022/02/23 05:28:47;;;;;;;3.55;1.3;;;;;;;3.66;85.59082;96014.71;;;;
2022/02/23 05:29:48;;;;;;;3.55;1.3;;;;;;;3.66;85.59082;96014.71;;;;
2022/02/23 05:30:48;;;;;;;3.55;1.3;;;;;;;3.66;85.59082;96014.71;;;;
2022/02/23 05:31:49;;;;;;;2.9;1.25;;;;;;;3.6;86.125;96038.94;;;;
2022/02/23 05:32:50;;;;;;;2.9;1.25;;;;;;;3.6;86.125;96038.94;;;;
2022/02/23 05:33:50;;;;;;;2.9;1.25;;;;;;;3.6;86.125;96038.94;;;;
2022/02/23 05:34:51;;;;;;;2.9;1.25;;;;;;;3.6;86.125;96038.94;;;;
2022/02/23 05:35:51;;;;;;;2.9;1.25;;;;;;;3.6;86.125;96038.94;;;;
2022/02/23 05:36:52;;;;;;;2.9;1.25;;;;;;;3.6;86.125;96038.94;;;;
2022/02/23 05:37:52;;;;;;;2.9;1.25;;;;;;;3.6;86.125;96038.94;;;;
2022/02/23 05:38:53;;;;;;;2.9;1.25;;;;;;;3.6;86.125;96038.94;;;;
2022/02/23 05:39:53;;;;;;;2.9;1.25;;;;;;;3.6;86.125;96038.94;;;;
2022/02/23 05:40:55;;;;;;;2.9;1.25;;;;;;;3.6;86.125;96038.94;;;;
2022/02/23 05:41:56;;;;;;;2.9;1.25;;;;;;;3.6;86.125;96038.94;;;;
2022/02/23 05:42:56;;;;;;;2.45;1.25;;;;;;;3.53;86.53125;96053.08;;;;
2022/02/23 05:43:57;;;;;;;2.45;1.25;;;;;;;3.53;86.53125;96053.08;;;;
2022/02/23 05:44:57;;;;;;;2.45;1.25;;;;;;;3.53;86.53125;96053.08;;;;
2022/02/23 05:45:58;;;;;;;2.45;1.25;;;;;;;3.53;86.53125;96053.08;;;;
2022/02/23 05:46:59;;;;;;;2.45;1.25;;;;;;;3.53;86.53125;96053.08;;;;
2022/02/23 05:47:59;;;;;;;2.45;1.25;;;;;;;3.53;86.53125;96053.08;;;;
2022/02/23 05:49:00;;;;;;;2.45;1.25;;;;;;;3.53;86.53125;96053.08;;;;
2022/02/23 05:50:00;;;;;;;2.45;1.25;;;;;;;3.53;86.53125;96053.08;;;;
2022/02/23 05:51:01;;;;;;;2.45;1.25;;;;;;;3.53;86.53125;96053.08;;;;
2022/02/23 05:52:01;;;;;;;2.45;1.25;;;;;;;3.53;86.53125;96053.08;;;;
2022/02/23 05:53:02;;;;;;;2.45;1.25;;;;;;;3.53;86.53125;96053.08;;;;
2022/02/23 05:54:03;;;;;;;5.05;1.7;;;;;;;3.48;86.99121;96075.47;;;;